ONX weather

Currituck County Regional Airport
Currituck, North Carolina, United States

Public forecast

Using degrees Fahrenheit for public forecast. Weather courtesy of forecast.io.

Current aviation weather report (METAR) for Currituck County Regional Airport

Retrieved 2020/04/03 03:55 UTC (13 minutes ago):

KONX 030355Z AUTO 28005KT 10SM CLR 11/01 RMK AO2 T01070014

Closest aviation forecast (TAF) to Currituck County Regional Airport

Closest forecast is Elizabeth City Regional Airport & Coast Guard Air Station, 11.3 nm (20.9 km) SW. Retrieved 2020-04-03 00:24 UTC (4 hours ago):

TAF TAF KECG 022320Z 0300/0324 31012KT P6SM SKC FM032000 33016G24KT P6SM FEW150 FM032300 36011KT P6SM SCT080